Time;durP1;ratioP1;P1;durP2;ratioP2;P2;SDS_P1;SDS_P2;PMS_P1;PMS_P2;Temp;Humidity;BMP_temperature;BMP_pressure;BME280_temperature;BME280_humidity;BME280_pressure;Samples;Min_cycle;Max_cycle;Signal;HPM_P1;HPM_P2
2021/05/17 00:00:36;;;;;;;2.13;1.00;;;9.70;99.90;;;10.59;100.00;96849.84;5044177;28;20495;-88
2021/05/17 00:03:07;;;;;;;1.33;1.13;;;9.90;99.90;;;10.61;100.00;96842.59;5044063;28;20464;-88
2021/05/17 00:05:35;;;;;;;1.43;1.17;;;10.00;99.90;;;10.62;100.00;96851.25;5041061;28;20464;-90
2021/05/17 00:08:07;;;;;;;4.40;1.03;;;10.10;99.90;;;10.66;100.00;96855.00;5038638;28;20464;-86
2021/05/17 00:10:35;;;;;;;12.53;1.37;;;10.00;99.90;;;10.69;100.00;96852.00;5043844;28;20448;-87
2021/05/17 00:13:04;;;;;;;2.10;1.27;;;9.90;99.90;;;10.60;100.00;96854.88;5042742;28;20496;-87
2021/05/17 00:15:33;;;;;;;3.10;1.10;;;9.80;99.90;;;10.63;100.00;96858.88;5043954;28;20461;-89
2021/05/17 00:18:01;;;;;;;2.77;1.20;;;9.80;99.90;;;10.63;100.00;96858.88;5045753;28;21166;-90
2021/05/17 00:20:32;;;;;;;10.93;2.43;;;9.80;99.90;;;10.63;100.00;96865.91;5044361;28;20465;-86
2021/05/17 00:23:01;;;;;;;4.13;1.70;;;9.80;99.90;;;10.49;100.00;96855.56;5044886;28;20517;-90
2021/05/17 00:25:31;;;;;;;1.83;1.20;;;9.60;99.90;;;10.57;100.00;96855.31;5043891;28;20456;-90
2021/05/17 00:28:00;;;;;;;3.40;1.30;;;9.70;99.90;;;10.49;100.00;96858.19;5041772;28;20463;-90
2021/05/17 00:30:32;;;;;;;1.63;1.30;;;9.60;99.90;;;10.36;100.00;96860.94;5045780;28;20500;-89
2021/05/17 00:33:02;;;;;;;2.20;1.37;;;9.50;99.90;;;10.20;100.00;96858.88;5048321;28;20819;-90
2021/05/17 00:35:31;;;;;;;1.60;1.30;;;9.30;99.90;;;10.26;100.00;96865.03;5052598;28;20920;-90
2021/05/17 00:38:00;;;;;;;1.30;1.00;;;9.40;99.90;;;10.30;100.00;96859.19;5047962;28;20472;-89
2021/05/17 00:40:30;;;;;;;1.67;1.10;;;9.40;99.90;;;10.25;100.00;96856.41;5065043;28;20464;-84
2021/05/17 00:42:58;;;;;;;3.70;1.20;;;9.40;99.90;;;10.34;100.00;96860.34;5064855;28;20464;-88
2021/05/17 00:45:27;;;;;;;4.10;1.17;;;9.40;99.90;;;10.31;100.00;96850.31;5063502;28;20541;-89
2021/05/17 00:47:56;;;;;;;2.83;1.80;;;9.40;99.90;;;10.31;100.00;96855.53;5066475;28;20483;-89
2021/05/17 00:50:27;;;;;;;3.80;1.07;;;9.50;99.90;;;10.27;100.00;96851.78;5064038;28;20464;-89
2021/05/17 00:52:57;;;;;;;3.73;1.10;;;9.40;99.90;;;10.23;100.00;96841.97;5056549;28;20491;-89
2021/05/17 00:55:28;;;;;;;1.10;1.00;;;9.40;99.90;;;10.30;100.00;96845.31;5056598;28;20456;-89
2021/05/17 00:57:59;;;;;;;1.40;1.13;;;9.60;99.90;;;10.35;100.00;96845.47;5058141;28;21022;-89
2021/05/17 01:00:32;;;;;;;1.97;1.30;;;9.60;99.90;;;10.19;100.00;96844.19;5061085;28;20460;-88
2021/05/17 01:03:00;;;;;;;2.87;1.03;;;9.30;99.90;;;10.31;100.00;96845.09;5055764;28;21036;-88
2021/05/17 01:05:28;;;;;;;1.13;1.03;;;9.50;99.90;;;10.39;100.00;96844.00;5059903;28;20525;-89
2021/05/17 01:07:57;;;;;;;1.00;0.90;;;9.60;99.90;;;10.46;100.00;96831.69;5066556;28;20476;-89
2021/05/17 01:10:31;;;;;;;1.50;1.40;;;9.70;99.90;;;10.48;100.00;96840.91;5063530;28;20880;-88
2021/05/17 01:13:01;;;;;;;2.73;1.30;;;9.70;99.90;;;10.51;100.00;96835.28;5060213;28;20504;-88
2021/05/17 01:15:30;;;;;;;2.20;1.30;;;9.70;99.90;;;10.56;100.00;96832.78;5058356;28;20565;-88
2021/05/17 01:18:00;;;;;;;2.03;1.27;;;9.80;99.90;;;10.46;100.00;96842.13;5063918;28;20460;-89
2021/05/17 01:20:32;;;;;;;1.83;1.23;;;9.70;99.90;;;10.23;100.00;96840.16;5062933;28;20464;-89
2021/05/17 01:23:30;;;;;;;1.70;1.50;;;9.40;99.90;;;10.36;100.00;96840.03;5065913;28;20456;-89
2021/05/17 01:26:01;;;;;;;6.73;1.70;;;9.50;99.90;;;10.44;100.00;96839.75;5063212;28;20471;-89
2021/05/17 01:28:31;;;;;;;3.03;1.47;;;9.70;99.90;;;10.46;100.00;96832.50;5064637;28;20460;-88
2021/05/17 01:31:04;;;;;;;1.40;1.30;;;9.70;99.90;;;10.52;100.00;96834.22;5061859;28;20605;-89
2021/05/17 01:33:35;;;;;;;1.33;1.23;;;9.70;99.90;;;10.40;100.00;96837.78;5065600;28;20492;-89
2021/05/17 01:36:05;;;;;;;1.87;1.50;;;9.60;99.90;;;10.46;100.00;96836.91;5067075;28;20464;-89
2021/05/17 01:38:39;;;;;;;3.53;1.60;;;9.70;99.90;;;10.46;100.00;96842.94;5065736;28;20968;-88
2021/05/17 01:41:11;;;;;;;1.43;1.33;;;9.70;99.90;;;10.55;100.00;96838.25;5060830;28;20851;-89
2021/05/17 01:43:43;;;;;;;1.53;1.20;;;9.70;99.90;;;10.56;100.00;96832.00;5066672;28;20452;-89
2021/05/17 01:46:16;;;;;;;1.90;1.60;;;9.70;99.90;;;10.58;100.00;96840.44;5064315;28;21200;-89
2021/05/17 01:48:46;;;;;;;3.10;1.60;;;9.70;99.90;;;10.56;100.00;96845.06;5078225;28;20457;-89
2021/05/17 01:51:17;;;;;;;1.83;1.40;;;9.70;99.90;;;10.50;100.00;96845.94;5067046;28;20462;-89
2021/05/17 01:53:50;;;;;;;2.90;1.77;;;9.60;99.90;;;10.56;100.00;96838.03;5065770;28;20499;-89
2021/05/17 01:56:20;;;;;;;2.47;1.63;;;9.70;99.90;;;10.57;100.00;96842.25;5063479;28;20474;-88
2021/05/17 01:58:48;;;;;;;5.13;1.20;;;9.70;99.90;;;10.53;100.00;96848.91;5064185;28;20504;-89
2021/05/17 02:01:19;;;;;;;2.43;1.60;;;9.70;99.90;;;10.61;100.00;96847.84;5066264;28;20980;-88
2021/05/17 02:03:51;;;;;;;4.50;1.43;;;9.70;99.90;;;10.59;100.00;96842.81;5059343;28;20978;-88
2021/05/17 02:06:21;;;;;;;2.47;1.50;;;9.80;99.90;;;10.62;100.00;96844.19;5067335;28;20467;-89
2021/05/17 02:08:52;;;;;;;2.43;1.50;;;9.80;99.90;;;10.66;100.00;96842.75;5064305;28;20468;-89
2021/05/17 02:11:24;;;;;;;7.63;1.40;;;10.00;99.90;;;10.68;100.00;96847.75;5066763;28;20936;-89
2021/05/17 02:13:53;;;;;;;1.40;1.30;;;9.90;99.90;;;10.71;100.00;96842.09;5066277;28;20579;-88
2021/05/17 02:16:22;;;;;;;1.60;1.40;;;9.90;99.90;;;10.75;100.00;96844.06;5064483;28;20985;-89
2021/05/17 02:18:51;;;;;;;5.80;1.50;;;10.00;99.90;;;10.73;100.00;96842.66;5059882;28;20493;-89
2021/05/17 02:21:21;;;;;;;4.17;1.40;;;10.10;99.90;;;10.73;100.00;96843.47;5054679;28;20472;-89
2021/05/17 02:23:50;;;;;;;4.87;1.57;;;10.00;99.90;;;10.71;100.00;96842.09;5066599;28;20952;-89
2021/05/17 02:26:19;;;;;;;2.17;1.33;;;9.90;99.90;;;10.73;100.00;96843.47;5068445;28;20586;-88
2021/05/17 02:28:47;;;;;;;2.73;1.00;;;10.00;99.90;;;10.72;100.00;96846.31;5066775;28;20972;-89
2021/05/17 02:31:16;;;;;;;1.27;1.17;;;9.90;99.90;;;10.72;100.00;96852.34;5070381;28;20530;-88
2021/05/17 02:33:45;;;;;;;2.10;1.00;;;10.00;99.90;;;10.65;100.00;96845.59;5064958;28;20499;-88
2021/05/17 02:36:14;;;;;;;4.10;1.20;;;9.90;99.90;;;10.70;100.00;96843.09;5066663;28;20456;-89
2021/05/17 02:38:43;;;;;;;1.47;1.20;;;9.90;99.90;;;10.72;100.00;96843.72;5069030;28;20572;-89
2021/05/17 02:41:16;;;;;;;1.10;0.90;;;10.00;99.90;;;10.67;100.00;96848.78;5067466;28;20461;-89
2021/05/17 02:43:47;;;;;;;1.60;1.10;;;9.90;99.90;;;10.72;100.00;96848.94;5062712;28;21031;-89
2021/05/17 02:46:17;;;;;;;1.13;1.03;;;10.00;99.90;;;10.75;100.00;96853.72;5066352;28;20542;-89
2021/05/17 02:48:46;;;;;;;1.77;1.10;;;10.00;99.90;;;10.72;100.00;96857.59;5067503;28;20463;-89
2021/05/17 02:51:15;;;;;;;1.83;1.03;;;9.90;99.90;;;10.70;100.00;96853.56;5066476;28;20625;-87
2021/05/17 02:54:20;;;;;;;3.13;1.00;;;9.90;99.90;;;10.70;100.00;96849.13;5068428;28;21037;-86
2021/05/17 02:57:09;;;;;;;3.77;0.90;;;10.00;99.90;;;10.72;100.00;96856.78;5068099;28;20468;-88
2021/05/17 03:00:16;;;;;;;1.10;1.00;;;10.00;99.90;;;10.73;100.00;96855.75;5065056;28;20479;-88
2021/05/17 03:03:11;;;;;;;2.90;1.10;;;10.00;99.90;;;10.68;100.00;96853.78;5065903;28;20461;-88
2021/05/17 03:05:42;;;;;;;2.10;1.10;;;9.90;99.90;;;10.69;100.00;96849.38;5066329;28;20452;-88
2021/05/17 03:08:13;;;;;;;3.07;1.00;;;9.90;99.90;;;10.73;100.00;96858.34;5064877;28;20452;-88
2021/05/17 03:10:45;;;;;;;1.13;1.03;;;9.90;99.90;;;10.75;100.00;96851.91;5070481;28;20436;-88
2021/05/17 03:13:19;;;;;;;1.30;1.00;;;10.00;99.90;;;10.75;100.00;96856.34;5069130;28;20496;-88
2021/05/17 03:15:48;;;;;;;1.10;0.70;;;9.90;99.90;;;10.78;100.00;96855.91;5067897;28;20919;-87
2021/05/17 03:18:17;;;;;;;1.70;1.50;;;10.00;99.90;;;10.76;100.00;96860.56;5066515;28;20499;-88
2021/05/17 03:20:45;;;;;;;1.30;0.97;;;10.10;99.90;;;10.74;100.00;96860.75;5068850;28;20468;-88
2021/05/17 03:23:16;;;;;;;1.53;0.80;;;10.10;99.90;;;10.75;100.00;96866.81;5068461;28;20496;-88
2021/05/17 03:25:48;;;;;;;7.17;1.10;;;10.00;99.90;;;10.76;100.00;96868.41;5069948;28;20513;-88
2021/05/17 03:28:18;;;;;;;2.17;1.17;;;10.00;99.90;;;10.76;100.00;96871.03;5063965;28;20468;-88
2021/05/17 03:30:46;;;;;;;4.40;1.10;;;10.00;99.90;;;10.75;100.00;96867.59;5065615;28;20472;-88
2021/05/17 03:33:14;;;;;;;1.00;0.80;;;9.90;99.90;;;10.76;100.00;96877.03;5063418;28;20503;-88
2021/05/17 03:35:42;;;;;;;0.90;0.80;;;9.90;99.90;;;10.78;100.00;96877.63;5063615;28;20461;-88
2021/05/17 03:38:10;;;;;;;1.90;1.03;;;10.00;99.90;;;10.78;100.00;96876.81;5065690;28;20465;-88
2021/05/17 03:40:38;;;;;;;1.20;0.93;;;10.00;99.90;;;10.77;100.00;96877.81;5065839;28;20882;-88
2021/05/17 03:43:06;;;;;;;2.07;1.00;;;10.00;99.90;;;10.74;100.00;96873.84;5063265;28;20468;-89
2021/05/17 03:45:36;;;;;;;1.57;1.00;;;9.90;99.90;;;10.76;100.00;96878.88;5068139;28;20479;-88
2021/05/17 03:48:05;;;;;;;4.70;0.90;;;9.90;99.90;;;10.77;100.00;96875.22;5066981;28;20510;-88
2021/05/17 03:50:33;;;;;;;6.70;1.00;;;9.90;99.90;;;10.75;100.00;96883.28;5063983;28;20456;-88
2021/05/17 03:53:02;;;;;;;6.23;0.90;;;9.90;99.90;;;10.71;100.00;96876.88;5063720;28;20499;-88
2021/05/17 03:55:31;;;;;;;9.20;1.07;;;9.90;99.90;;;10.70;100.00;96882.31;5065860;28;20469;-87
2021/05/17 03:58:00;;;;;;;0.80;0.80;;;9.90;99.90;;;10.71;100.00;96886.53;5066205;28;20487;-88
2021/05/17 04:00:30;;;;;;;1.40;1.07;;;9.90;99.90;;;10.74;100.00;96892.13;5068193;28;20814;-88
2021/05/17 04:03:02;;;;;;;1.07;0.97;;;9.90;99.90;;;10.75;100.00;96895.56;5065408;28;20534;-88
2021/05/17 04:05:35;;;;;;;3.00;1.40;;;9.90;99.90;;;10.74;100.00;96894.75;5065195;28;21104;-88
2021/05/17 04:13:32;;;;;;;1.07;0.87;;;9.90;99.90;;;10.69;100.00;96899.81;5067954;28;20490;-87
2021/05/17 04:16:00;;;;;;;1.00;0.80;;;9.90;99.90;;;10.72;100.00;96894.19;5062584;28;20475;-89
2021/05/17 04:18:29;;;;;;;2.97;1.73;;;10.00;99.90;;;10.73;100.00;96905.41;5068654;28;20900;-88
2021/05/17 04:20:58;;;;;;;1.00;0.90;;;9.90;99.90;;;10.71;100.00;96905.66;5065013;28;20456;-88
2021/05/17 04:23:28;;;;;;;2.20;1.07;;;9.90;99.90;;;10.71;100.00;96907.47;5067464;28;20444;-88
2021/05/17 04:25:56;;;;;;;1.27;0.90;;;10.00;99.90;;;10.69;100.00;96909.50;5060767;28;20460;-88
2021/05/17 04:28:26;;;;;;;1.40;1.00;;;10.00;99.90;;;10.72;100.00;96914.31;5058333;28;20460;-88
2021/05/17 04:30:54;;;;;;;10.60;1.23;;;10.00;99.90;;;10.77;100.00;96917.06;5068070;28;20467;-88
2021/05/17 04:33:23;;;;;;;2.30;1.13;;;10.00;99.90;;;10.73;100.00;96913.25;5062845;28;20547;-88
2021/05/17 04:35:52;;;;;;;1.50;1.00;;;10.00;99.90;;;10.72;100.00;96914.31;5068209;28;21093;-88
2021/05/17 04:38:20;;;;;;;3.63;1.10;;;9.90;99.90;;;10.75;100.00;96914.66;5063619;28;20538;-88
2021/05/17 04:40:49;;;;;;;2.80;1.20;;;10.00;99.90;;;10.78;100.00;96918.66;5063630;28;20456;-88
2021/05/17 04:43:17;;;;;;;2.60;1.17;;;10.00;99.90;;;10.79;100.00;96925.50;5062013;28;20476;-88
2021/05/17 04:45:45;;;;;;;6.43;1.10;;;10.10;99.90;;;10.78;100.00;96923.88;5063128;28;20492;-88
2021/05/17 04:48:13;;;;;;;2.97;1.27;;;10.00;99.90;;;10.80;100.00;96921.84;5065390;28;20483;-87
2021/05/17 04:50:41;;;;;;;2.40;1.30;;;10.00;99.90;;;10.83;100.00;96931.91;5064610;28;20541;-88
2021/05/17 04:53:10;;;;;;;9.77;1.37;;;10.10;99.90;;;10.82;100.00;96938.94;5065929;28;20460;-88
2021/05/17 04:55:38;;;;;;;1.40;1.30;;;10.10;99.90;;;10.88;100.00;96939.88;5066966;28;20460;-88
2021/05/17 04:58:08;;;;;;;4.40;1.27;;;10.20;99.90;;;10.89;100.00;96942.28;5065155;28;20936;-88
2021/05/17 05:00:36;;;;;;;4.87;1.53;;;10.20;99.90;;;10.90;100.00;96945.69;5065193;28;20464;-88
2021/05/17 05:03:05;;;;;;;4.20;1.20;;;10.20;99.90;;;10.83;100.00;96943.13;5062679;28;20468;-88
2021/05/17 05:05:33;;;;;;;3.60;1.23;;;10.10;99.90;;;10.90;100.00;96945.69;5063023;28;20468;-88
2021/05/17 05:08:01;;;;;;;7.83;1.60;;;10.20;99.90;;;10.89;100.00;96946.72;5067625;28;20451;-88
2021/05/17 05:10:30;;;;;;;9.80;1.83;;;10.20;99.90;;;10.91;100.00;96955.13;5058507;28;20972;-88
2021/05/17 05:13:05;;;;;;;3.30;1.10;;;10.20;99.90;;;10.92;100.00;96951.50;5060256;28;20493;-88
2021/05/17 05:15:34;;;;;;;5.83;1.30;;;10.30;99.90;;;10.94;100.00;96941.63;5062975;28;20463;-87
2021/05/17 05:18:02;;;;;;;3.90;1.40;;;10.30;99.90;;;10.88;100.00;96951.16;5062384;28;21133;-88
2021/05/17 05:20:30;;;;;;;5.77;1.30;;;10.20;99.90;;;10.92;100.00;96948.91;5065039;28;20482;-88
2021/05/17 05:23:01;;;;;;;5.10;1.50;;;10.20;99.90;;;10.93;100.00;96945.28;5064092;28;20961;-88
2021/05/17 05:25:45;;;;;;;2.53;1.23;;;10.20;99.90;;;10.96;100.00;96944.84;5068008;28;20440;-86
2021/05/17 05:28:18;;;;;;;6.13;1.10;;;10.20;99.90;;;10.98;100.00;96950.66;5061926;28;20851;-87
2021/05/17 05:30:53;;;;;;;7.03;1.50;;;10.20;99.90;;;10.99;100.00;96954.88;5062041;28;20476;-88
2021/05/17 05:33:21;;;;;;;1.60;1.23;;;10.20;99.90;;;10.97;100.00;96954.25;5042703;28;20886;-88
2021/05/17 05:35:50;;;;;;;5.37;1.23;;;10.20;99.90;;;10.95;100.00;96956.31;5063405;28;20461;-88
2021/05/17 05:38:19;;;;;;;4.10;1.50;;;10.30;99.90;;;10.97;100.00;96955.06;5061439;28;20476;-88
2021/05/17 05:40:50;;;;;;;6.27;1.43;;;10.30;99.90;;;11.01;100.00;96952.81;5066424;28;20976;-88
2021/05/17 05:43:18;;;;;;;2.10;1.30;;;10.50;99.90;;;11.02;100.00;96950.00;5065488;28;20460;-88
2021/05/17 05:45:47;;;;;;;3.90;1.30;;;10.50;99.90;;;11.07;100.00;96952.75;5062772;28;20489;-88
2021/05/17 05:48:16;;;;;;;2.57;1.70;;;10.50;99.90;;;11.08;100.00;96962.22;5064849;28;20460;-88
2021/05/17 05:50:46;;;;;;;3.97;1.40;;;10.40;99.90;;;11.15;100.00;96956.91;5063792;28;20467;-89
2021/05/17 05:53:15;;;;;;;7.73;2.07;;;10.40;99.90;;;11.16;100.00;96953.28;5067137;28;20470;-88
2021/05/17 05:55:44;;;;;;;3.33;1.40;;;10.40;99.90;;;11.25;100.00;96962.44;5066032;28;20528;-87
2021/05/17 05:58:15;;;;;;;7.00;1.30;;;10.50;99.90;;;11.31;100.00;96960.78;5059402;28;20465;-88
2021/05/17 06:00:44;;;;;;;3.17;1.60;;;10.60;99.90;;;11.34;100.00;96963.75;5064574;28;20468;-88
2021/05/17 06:03:12;;;;;;;8.33;1.83;;;10.70;99.90;;;11.30;100.00;96964.41;5072238;28;20467;-88
2021/05/17 06:05:41;;;;;;;2.70;1.53;;;10.60;99.90;;;11.33;100.00;96964.78;5070300;28;20918;-88
2021/05/17 06:08:09;;;;;;;9.77;1.50;;;10.60;99.90;;;11.36;100.00;96963.53;5070727;28;20521;-89
2021/05/17 06:10:38;;;;;;;2.60;1.17;;;10.60;99.90;;;11.37;100.00;96981.66;5071275;28;21057;-88
2021/05/17 06:13:07;;;;;;;8.07;1.37;;;10.70;99.90;;;11.36;100.00;96969.56;5070589;28;20483;-89
2021/05/17 06:15:40;;;;;;;1.57;1.33;;;10.70;99.90;;;11.29;100.00;96974.06;5068759;28;21069;-89
2021/05/17 06:18:09;;;;;;;2.63;1.30;;;10.60;99.90;;;11.32;100.00;96963.16;5069959;28;20456;-89
2021/05/17 06:20:39;;;;;;;9.20;2.17;;;10.60;99.90;;;11.37;100.00;96976.41;5069168;28;20819;-89
2021/05/17 06:23:09;;;;;;;2.33;1.13;;;10.60;99.90;;;11.39;100.00;96969.13;5068079;28;20497;-88
2021/05/17 06:25:38;;;;;;;3.97;1.60;;;10.70;99.90;;;11.42;100.00;96978.38;5067288;28;20464;-88
2021/05/17 06:28:08;;;;;;;3.63;1.23;;;10.70;99.90;;;11.46;100.00;96977.72;5065859;28;20460;-88
2021/05/17 06:30:47;;;;;;;3.47;1.50;;;10.80;99.90;;;11.46;100.00;96975.09;5069761;28;20991;-88
2021/05/17 06:33:16;;;;;;;4.20;1.00;;;10.90;99.90;;;11.44;100.00;96979.75;5069755;28;20468;-88
2021/05/17 06:35:45;;;;;;;3.47;1.10;;;10.90;99.90;;;11.41;100.00;96988.03;5068114;28;20857;-89
2021/05/17 06:38:14;;;;;;;1.73;1.17;;;10.80;99.90;;;11.43;100.00;96991.22;5070730;28;20456;-88
2021/05/17 06:40:43;;;;;;;4.20;1.30;;;10.80;99.90;;;11.48;100.00;96994.00;5073711;28;20437;-88
2021/05/17 06:43:13;;;;;;;1.90;1.10;;;10.80;99.90;;;11.49;100.00;96995.59;5070278;28;20888;-88
2021/05/17 06:45:44;;;;;;;3.77;1.20;;;10.90;99.90;;;11.42;100.00;96994.84;5053489;28;20870;-87
2021/05/17 06:48:14;;;;;;;4.20;1.37;;;10.90;99.90;;;11.42;100.00;96997.47;5069519;28;20468;-88
2021/05/17 06:50:43;;;;;;;3.77;2.90;;;10.80;99.90;;;11.36;100.00;97000.97;5049033;28;20471;-88
2021/05/17 06:53:12;;;;;;;2.23;0.90;;;10.70;99.90;;;11.43;100.00;96999.09;5067568;28;20464;-88
2021/05/17 06:55:44;;;;;;;2.00;1.03;;;10.80;99.90;;;11.50;100.00;96993.78;5073553;28;20541;-88
2021/05/17 06:58:16;;;;;;;2.50;1.20;;;10.90;99.90;;;11.54;100.00;97000.97;5073832;28;20523;-88
2021/05/17 07:00:46;;;;;;;4.03;1.17;;;10.90;99.90;;;11.59;100.00;97011.59;5073652;28;20444;-88
2021/05/17 07:03:16;;;;;;;4.20;1.57;;;10.90;99.90;;;11.64;100.00;97003.09;5071643;28;20432;-88
2021/05/17 07:05:46;;;;;;;1.83;0.83;;;11.00;99.90;;;11.73;100.00;97011.50;5070464;28;20471;-88
2021/05/17 07:14:01;;;;;;;1.83;1.23;;;11.20;99.90;;;11.89;100.00;97003.03;5010032;28;20462;-88
2021/05/17 07:16:30;;;;;;;2.97;1.40;;;11.20;99.90;;;11.93;100.00;97006.81;5053394;28;20568;-88
2021/05/17 07:18:59;;;;;;;1.50;1.00;;;11.30;99.90;;;11.95;100.00;97013.41;5067680;28;20475;-89
2021/05/17 07:24:14;;;;;;;3.90;1.00;;;11.40;99.90;;;11.96;100.00;97012.41;5069144;28;20472;-88
2021/05/17 07:26:43;;;;;;;5.03;1.00;;;11.40;99.90;;;11.96;100.00;97014.22;5067591;28;20468;-88
2021/05/17 07:29:12;;;;;;;2.40;1.00;;;11.30;99.90;;;11.98;100.00;97009.53;5061348;28;20472;-87
2021/05/17 07:31:41;;;;;;;3.43;1.23;;;11.30;99.90;;;12.03;100.00;97015.75;5063809;28;20483;-88
2021/05/17 07:34:10;;;;;;;1.33;1.03;;;11.30;99.90;;;12.02;100.00;97021.19;5065609;28;20472;-88
2021/05/17 07:36:38;;;;;;;3.27;1.23;;;11.40;99.90;;;12.04;100.00;97019.16;5065796;28;20479;-88
2021/05/17 07:39:08;;;;;;;2.23;0.90;;;11.40;99.90;;;12.10;100.00;97023.50;5067624;28;20433;-89
2021/05/17 07:41:37;;;;;;;1.00;0.87;;;11.40;99.90;;;12.06;100.00;97024.97;5067608;28;20541;-88
2021/05/17 07:44:07;;;;;;;1.87;1.13;;;11.40;99.90;;;12.04;100.00;97019.16;5064902;28;20976;-88
2021/05/17 07:46:36;;;;;;;3.33;1.30;;;11.40;99.90;;;11.93;100.00;97025.13;5058891;28;20853;-87
2021/05/17 07:49:12;;;;;;;4.63;1.60;;;11.20;99.90;;;11.89;100.00;97022.16;5064610;28;20463;-88
2021/05/17 07:51:43;;;;;;;1.80;0.90;;;11.20;99.90;;;11.97;100.00;97024.50;5064591;28;20532;-88
2021/05/17 07:54:13;;;;;;;2.47;0.97;;;11.40;99.90;;;11.99;100.00;97027.69;5066856;28;20456;-87
2021/05/17 07:56:41;;;;;;;5.17;1.27;;;11.30;99.90;;;12.01;100.00;97023.00;5061621;28;20456;-87
2021/05/17 07:59:10;;;;;;;2.40;1.30;;;11.40;99.90;;;12.00;100.00;97028.47;5063383;28;20585;-88
2021/05/17 08:01:39;;;;;;;7.70;1.20;;;11.40;99.90;;;11.99;100.00;97026.88;5064831;28;20463;-88
2021/05/17 08:04:08;;;;;;;1.73;0.93;;;11.30;99.90;;;12.03;100.00;97038.50;5061777;28;20467;-88
2021/05/17 08:06:36;;;;;;;5.40;1.13;;;11.30;99.90;;;12.01;100.00;97030.88;5065427;28;20472;-88
2021/05/17 08:09:05;;;;;;;1.33;0.83;;;11.30;99.90;;;12.06;100.00;97045.94;5064142;28;20894;-88
2021/05/17 08:11:33;;;;;;;1.10;0.90;;;11.40;99.90;;;12.03;100.00;97039.31;5059076;28;20480;-87
2021/05/17 08:14:03;;;;;;;2.23;1.10;;;11.40;99.90;;;12.03;100.00;97034.09;5063913;28;20562;-88
2021/05/17 08:16:32;;;;;;;1.97;1.00;;;11.40;99.90;;;11.99;100.00;97037.34;5061181;28;20541;-88
2021/05/17 08:19:00;;;;;;;3.43;1.70;;;11.40;99.90;;;11.94;100.00;97039.84;5067443;28;20475;-88
2021/05/17 08:21:30;;;;;;;1.73;0.93;;;11.20;99.90;;;11.95;100.00;97042.22;5058844;28;20491;-88
2021/05/17 08:23:59;;;;;;;4.53;1.07;;;11.20;99.90;;;11.96;100.00;97043.84;5060983;28;20834;-88
2021/05/17 08:26:27;;;;;;;1.73;0.90;;;11.30;99.90;;;11.88;100.00;97048.56;5052893;28;20546;-87
2021/05/17 08:28:56;;;;;;;3.33;1.10;;;11.30;99.90;;;11.90;100.00;97041.31;5064348;28;20460;-88
2021/05/17 08:31:25;;;;;;;1.83;1.00;;;11.30;99.90;;;11.96;100.00;97045.66;5061894;28;20517;-88
2021/05/17 08:33:53;;;;;;;1.83;1.00;;;11.40;99.90;;;12.01;100.00;97040.53;5061308;28;20465;-86
2021/05/17 08:36:21;;;;;;;3.10;1.20;;;11.40;99.90;;;12.01;100.00;97051.81;5065648;28;20515;-88
2021/05/17 08:38:50;;;;;;;3.13;1.07;;;11.40;99.90;;;12.03;100.00;97046.38;5066229;28;20461;-88
2021/05/17 08:41:20;;;;;;;1.13;0.90;;;11.50;99.90;;;12.08;100.00;97044.69;5063793;28;20465;-88
2021/05/17 08:43:48;;;;;;;2.80;1.20;;;11.50;99.90;;;12.18;100.00;97051.25;5061973;28;20468;-87
2021/05/17 08:46:16;;;;;;;3.07;1.00;;;11.50;99.90;;;12.25;100.00;97050.09;5067789;28;20533;-89
2021/05/17 08:48:50;;;;;;;3.20;1.17;;;11.60;99.90;;;12.33;100.00;97049.81;5064328;28;20888;-88
2021/05/17 08:51:23;;;;;;;1.57;0.90;;;11.60;99.90;;;12.37;100.00;97053.59;5057191;28;20478;-87
2021/05/17 08:53:58;;;;;;;4.73;1.87;;;11.70;99.90;;;12.36;100.00;97048.56;5062847;28;22847;-87
2021/05/17 08:56:27;;;;;;;2.40;1.30;;;11.70;99.90;;;12.38;100.00;97057.81;5063265;28;20484;-86
2021/05/17 08:58:59;;;;;;;2.97;1.20;;;11.80;99.90;;;12.41;100.00;97049.50;5053021;28;20934;-86
2021/05/17 09:01:27;;;;;;;30.80;17.70;;;11.70;99.90;;;12.52;100.00;97048.75;5063117;28;20513;-81
2021/05/17 09:04:01;;;;;;;8.77;1.30;;;11.90;99.90;;;12.52;100.00;97043.50;5063416;28;20467;-86
2021/05/17 09:06:42;;;;;;;3.80;1.20;;;11.80;99.90;;;12.56;100.00;97044.63;5066723;28;20456;-84
2021/05/17 09:09:27;;;;;;;3.23;1.10;;;11.80;99.90;;;12.65;100.00;97041.69;5065297;28;20440;-86
2021/05/17 09:11:58;;;;;;;1.43;1.00;;;11.90;99.90;;;12.70;100.00;97039.22;5067776;28;20472;-86
2021/05/17 09:14:27;;;;;;;6.23;1.40;;;11.90;99.90;;;12.64;100.00;97054.00;5065114;28;20932;-86
2021/05/17 09:17:00;;;;;;;1.83;1.10;;;11.90;99.90;;;12.66;100.00;97043.31;5060001;28;20471;-87
2021/05/17 09:19:37;;;;;;;2.30;1.10;;;11.90;99.90;;;12.64;100.00;97040.88;5065184;28;20472;-87
2021/05/17 09:22:13;;;;;;;1.57;0.90;;;11.90;99.90;;;12.79;100.00;97040.47;5068477;28;20452;-87
2021/05/17 09:24:47;;;;;;;10.33;4.50;;;12.20;99.90;;;12.78;100.00;97041.47;5058132;28;20875;-88
2021/05/17 09:27:22;;;;;;;1.43;0.90;;;12.10;99.90;;;12.89;100.00;97048.59;5063334;28;20459;-87
2021/05/17 09:29:54;;;;;;;3.33;1.00;;;12.20;99.90;;;12.96;100.00;97047.47;5064643;28;20451;-86
2021/05/17 09:32:25;;;;;;;5.27;1.23;;;12.30;99.90;;;13.05;100.00;97045.31;5078682;28;20837;-85
2021/05/17 09:35:05;;;;;;;1.97;1.13;;;12.40;99.90;;;13.17;100.00;97045.34;5061798;28;20476;-86
2021/05/17 09:37:47;;;;;;;3.03;1.10;;;12.50;99.90;;;13.17;100.00;97051.38;5064508;28;20449;-85
2021/05/17 09:40:23;;;;;;;5.10;1.37;;;12.50;99.90;;;13.25;100.00;97048.44;5067240;28;20440;-86
2021/05/17 09:43:02;;;;;;;2.83;1.17;;;12.60;99.90;;;13.25;100.00;97053.69;5056311;28;20517;-83
2021/05/17 09:45:45;;;;;;;16.73;6.40;;;12.60;99.90;;;13.26;100.00;97042.13;5059605;28;20499;-82
2021/05/17 09:48:16;;;;;;;2.70;0.90;;;12.70;99.90;;;13.31;100.00;97042.25;5065491;28;20452;-82
2021/05/17 09:51:08;;;;;;;2.00;1.23;;;12.70;99.90;;;13.34;100.00;97041.81;5067413;28;20955;-82
2021/05/17 09:53:39;;;;;;;3.13;0.93;;;12.80;99.90;;;13.26;100.00;97052.63;5067354;28;20463;-82
2021/05/17 09:56:11;;;;;;;3.27;1.10;;;12.60;99.90;;;13.20;100.00;97045.69;5066167;28;20584;-81
2021/05/17 09:58:41;;;;;;;1.17;1.00;;;12.50;99.90;;;13.14;100.00;97054.47;5067298;28;20447;-81
2021/05/17 10:01:24;;;;;;;3.03;1.20;;;12.40;99.90;;;13.22;100.00;97054.16;5067593;28;20968;-81
2021/05/17 10:03:55;;;;;;;3.83;1.40;;;12.50;99.90;;;13.27;100.00;97067.38;5067833;28;20491;-81
2021/05/17 10:06:25;;;;;;;2.37;1.10;;;12.60;99.90;;;13.27;100.00;97071.81;5066016;28;20540;-81
2021/05/17 10:08:56;;;;;;;2.80;1.13;;;12.70;99.90;;;13.29;100.00;97070.59;5067257;28;20441;-83
2021/05/17 10:11:29;;;;;;;3.57;1.10;;;12.70;99.90;;;13.24;100.00;97067.81;5062900;28;20581;-82
2021/05/17 10:13:57;;;;;;;0.97;0.87;;;12.60;99.90;;;13.21;100.00;97060.41;5060732;28;20471;-82
2021/05/17 10:16:26;;;;;;;3.83;1.10;;;12.50;99.90;;;13.28;100.00;97057.66;5066509;28;20495;-82
2021/05/17 10:18:54;;;;;;;1.33;0.87;;;12.60;99.90;;;13.36;100.00;97058.13;5062077;28;22985;-82
2021/05/17 10:21:23;;;;;;;3.20;1.20;;;12.70;99.90;;;13.36;100.00;97050.22;5062439;28;20466;-83
2021/05/17 10:23:51;;;;;;;1.60;0.90;;;12.70;99.90;;;13.46;100.00;97062.81;5066221;28;20476;-83
2021/05/17 10:26:24;;;;;;;3.87;1.10;;;12.80;99.90;;;13.54;100.00;97052.75;5067133;28;20976;-83
2021/05/17 10:28:56;;;;;;;1.77;1.27;;;12.90;99.90;;;13.61;100.00;97053.44;5067353;28;20436;-83
2021/05/17 10:31:26;;;;;;;1.50;1.00;;;13.00;99.90;;;13.67;100.00;97056.97;5066792;28;20806;-83
2021/05/17 10:34:02;;;;;;;3.33;1.00;;;13.00;99.90;;;13.80;100.00;97056.72;5066874;28;20505;-83
2021/05/17 10:36:59;;;;;;;1.77;0.87;;;13.20;99.90;;;13.75;100.00;97051.34;5062530;28;20488;-82
2021/05/17 10:39:35;;;;;;;3.43;1.03;;;13.10;99.90;;;13.79;100.00;97043.78;5042617;28;20472;-83
2021/05/17 10:42:15;;;;;;;2.70;0.87;;;13.00;99.90;;;13.94;100.00;97054.63;5058723;28;20444;-82
2021/05/17 10:48:22;;;;;;;7.30;0.90;;;13.40;99.90;;;13.96;100.00;97047.31;5066371;28;20448;-82